Авиационная погода в Полярном

Регион: 
Погода METAR: 
UERP 170300Z 34004G09MPS 3400 -SHSN DRSN BKN012CB OVC100 M09/M12 Q0999 NOSIG RMK QFE705
Время наблюдения
2021-05-17T03:00:00Z
Температура C
-9.0
Точка росы
-12.0
Направление ветра
340
Скорость ветра (узлы)
8
Метео видимость
2.11
Явления погоды
-SHSN DRSN
Условия полета
IFR
Аэропорт подробнее: